createdAt,value
2017-09-24T00:02:10.724Z,99.90
2017-09-24T00:04:39.620Z,99.90
2017-09-24T00:07:08.287Z,99.90
2017-09-24T00:09:38.208Z,99.90
2017-09-24T00:12:07.076Z,99.90
2017-09-24T00:14:35.198Z,99.90
2017-09-24T00:17:03.703Z,99.90
2017-09-24T00:19:31.795Z,99.90
2017-09-24T00:21:59.912Z,99.90
2017-09-24T00:24:28.015Z,99.90
2017-09-24T00:26:56.145Z,99.90
2017-09-24T00:29:24.280Z,99.90
2017-09-24T00:31:53.211Z,99.90
2017-09-24T00:34:21.538Z,99.90
2017-09-24T00:36:49.684Z,99.90
2017-09-24T00:39:17.784Z,99.90
2017-09-24T00:41:45.936Z,99.90
2017-09-24T00:44:14.075Z,99.90
2017-09-24T00:46:42.374Z,99.90
2017-09-24T00:49:10.495Z,99.90
2017-09-24T00:51:38.774Z,99.90
2017-09-24T00:54:06.856Z,99.90
2017-09-24T00:56:34.957Z,99.90
2017-09-24T00:59:03.060Z,99.90
2017-09-24T01:01:31.168Z,99.90
2017-09-24T01:04:00.465Z,99.90
2017-09-24T01:06:29.328Z,99.90
2017-09-24T01:08:58.800Z,99.90
2017-09-24T01:11:28.113Z,99.90
2017-09-24T01:13:56.246Z,99.90
2017-09-24T01:16:40.036Z,99.90
2017-09-24T01:19:23.043Z,99.90
2017-09-24T01:21:51.193Z,99.90
2017-09-24T01:24:19.284Z,99.90
2017-09-24T01:26:47.390Z,99.90
2017-09-24T01:29:15.501Z,99.90
2017-09-24T01:31:43.614Z,99.90
2017-09-24T01:34:11.727Z,99.90
2017-09-24T01:36:39.865Z,99.90
2017-09-24T01:39:07.968Z,99.90
2017-09-24T01:41:36.943Z,99.90
2017-09-24T01:44:05.043Z,99.90
2017-09-24T01:46:33.233Z,99.90
2017-09-24T01:49:01.428Z,99.90
2017-09-24T01:51:29.598Z,99.90
2017-09-24T01:53:57.760Z,99.90
2017-09-24T01:56:25.887Z,99.90
2017-09-24T01:58:54.045Z,99.90
2017-09-24T02:01:22.175Z,99.90
2017-09-24T02:03:50.284Z,99.90
2017-09-24T02:06:18.394Z,99.90
2017-09-24T02:08:46.783Z,99.90
2017-09-24T02:11:14.884Z,99.90
2017-09-24T02:13:44.033Z,99.90
2017-09-24T02:16:12.161Z,99.90
2017-09-24T02:18:41.910Z,99.90
2017-09-24T02:21:10.016Z,99.90
2017-09-24T02:23:38.336Z,99.90
2017-09-24T02:26:06.432Z,99.90
2017-09-24T02:28:34.552Z,99.90
2017-09-24T02:31:03.515Z,99.90
2017-09-24T02:33:31.620Z,99.90
2017-09-24T02:35:59.756Z,99.90
2017-09-24T02:38:27.872Z,99.90
2017-09-24T02:40:56.739Z,99.90
2017-09-24T02:43:24.887Z,99.90
2017-09-24T02:45:53.923Z,99.90
2017-09-24T02:48:22.808Z,99.90
2017-09-24T02:50:51.977Z,99.90
2017-09-24T02:53:20.081Z,99.90
2017-09-24T02:55:49.154Z,99.90
2017-09-24T02:58:18.019Z,99.90
2017-09-24T03:00:46.120Z,99.90
2017-09-24T03:03:15.011Z,99.90
2017-09-24T03:05:44.726Z,99.90
2017-09-24T03:08:13.228Z,99.90
2017-09-24T03:10:41.431Z,99.90
2017-09-24T03:13:09.562Z,99.90
2017-09-24T03:15:37.668Z,99.90
2017-09-24T03:18:05.777Z,99.90
2017-09-24T03:20:34.653Z,99.90
2017-09-24T03:23:02.764Z,99.90
2017-09-24T03:25:31.667Z,99.90
2017-09-24T03:27:59.792Z,99.90
2017-09-24T03:30:27.880Z,99.90
2017-09-24T03:32:56.015Z,99.90
2017-09-24T03:35:25.075Z,99.90
2017-09-24T03:37:54.843Z,99.90
2017-09-24T03:40:23.708Z,99.90
2017-09-24T03:42:51.823Z,99.90
2017-09-24T03:45:20.714Z,99.90
2017-09-24T03:47:48.839Z,99.90
2017-09-24T03:50:16.935Z,99.90
2017-09-24T03:52:45.047Z,99.90
2017-09-24T03:55:13.155Z,99.90
2017-09-24T03:57:41.326Z,99.90
2017-09-24T04:00:09.427Z,99.90
2017-09-24T04:02:38.297Z,99.90
2017-09-24T04:05:08.227Z,99.90
2017-09-24T04:07:36.380Z,99.90
2017-09-24T04:10:05.378Z,99.90
2017-09-24T04:12:33.536Z,99.90
2017-09-24T04:15:02.830Z,99.90
2017-09-24T04:17:30.951Z,99.90
2017-09-24T04:19:59.865Z,99.90
2017-09-24T04:22:28.005Z,99.90
2017-09-24T04:24:56.872Z,99.90
2017-09-24T04:27:24.984Z,99.90
2017-09-24T04:29:53.093Z,99.90
2017-09-24T04:32:21.188Z,99.90
2017-09-24T04:34:49.304Z,99.90
2017-09-24T04:37:17.404Z,99.90
2017-09-24T04:39:45.516Z,99.90
2017-09-24T04:42:14.415Z,99.90
2017-09-24T04:44:43.305Z,99.90
2017-09-24T04:47:12.962Z,99.90
2017-09-24T04:49:41.394Z,99.90
2017-09-24T04:52:10.279Z,99.90
2017-09-24T04:54:39.150Z,99.90
2017-09-24T04:57:08.016Z,99.90
2017-09-24T04:59:36.124Z,99.90
2017-09-24T05:02:05.040Z,99.90
2017-09-24T05:04:33.929Z,99.90
2017-09-24T05:07:04.078Z,99.90
2017-09-24T05:09:33.207Z,99.90
2017-09-24T05:12:01.325Z,99.90
2017-09-24T05:14:29.448Z,99.90
2017-09-24T05:16:58.353Z,99.90
2017-09-24T05:19:26.809Z,99.90
2017-09-24T05:21:56.026Z,99.90
2017-09-24T05:24:24.194Z,99.90
2017-09-24T05:26:53.055Z,99.90
2017-09-24T05:29:21.283Z,99.90
2017-09-24T05:31:50.171Z,99.90
2017-09-24T05:34:18.327Z,99.90
2017-09-24T05:36:47.160Z,99.90
2017-09-24T05:39:15.289Z,99.90
2017-09-24T05:41:44.151Z,99.90
2017-09-24T05:44:14.028Z,99.90
2017-09-24T05:46:42.149Z,99.90
2017-09-24T05:49:11.109Z,99.90
2017-09-24T05:51:40.747Z,99.90
2017-09-24T05:54:12.362Z,99.90
2017-09-24T05:56:41.012Z,99.90
2017-09-24T05:59:09.171Z,99.90
2017-09-24T06:01:37.276Z,99.90
2017-09-24T06:04:05.412Z,99.90
2017-09-24T06:06:33.512Z,99.90
2017-09-24T06:09:01.636Z,99.90
2017-09-24T06:11:29.754Z,99.90
2017-09-24T06:13:57.835Z,99.90
2017-09-24T06:16:25.967Z,99.90
2017-09-24T06:18:54.076Z,99.90
2017-09-24T06:21:22.208Z,99.90
2017-09-24T06:23:50.316Z,99.90
2017-09-24T06:29:17.227Z,99.90
2017-09-24T06:31:46.121Z,99.90
2017-09-24T06:34:15.029Z,99.90
2017-09-24T06:36:43.110Z,99.90
2017-09-24T06:39:11.231Z,99.90
2017-09-24T06:41:39.312Z,99.90
2017-09-24T06:44:07.427Z,99.90
2017-09-24T06:46:35.548Z,99.90
2017-09-24T06:49:04.534Z,99.90
2017-09-24T06:51:32.633Z,99.90
2017-09-24T06:54:00.724Z,99.90
2017-09-24T06:56:28.854Z,99.90
2017-09-24T06:58:58.455Z,99.90
2017-09-24T07:01:26.572Z,99.90
2017-09-24T07:03:54.676Z,99.90
2017-09-24T07:06:22.766Z,99.90
2017-09-24T07:08:51.638Z,99.90
2017-09-24T07:11:19.757Z,99.90
2017-09-24T07:13:47.864Z,99.90
2017-09-24T07:16:16.004Z,99.90
2017-09-24T07:18:44.105Z,99.90
2017-09-24T07:21:12.418Z,99.90
2017-09-24T07:23:40.525Z,99.90
2017-09-24T07:26:08.932Z,99.90
2017-09-24T07:28:37.077Z,99.90
2017-09-24T07:31:05.184Z,99.90
2017-09-24T07:33:33.304Z,99.90
2017-09-24T07:36:01.417Z,99.90
2017-09-24T07:38:30.232Z,99.90
2017-09-24T07:40:58.383Z,99.90
2017-09-24T07:43:27.469Z,99.90
2017-09-24T07:45:56.566Z,99.90
2017-09-24T07:48:24.741Z,99.90
2017-09-24T07:50:52.890Z,99.90
2017-09-24T07:53:21.071Z,99.90
2017-09-24T07:55:49.203Z,99.90
2017-09-24T07:58:18.093Z,99.90
2017-09-24T08:00:46.236Z,99.90
2017-09-24T08:03:14.370Z,99.90
2017-09-24T08:05:42.459Z,99.90
2017-09-24T08:08:10.588Z,99.90
2017-09-24T08:10:39.484Z,99.90
2017-09-24T08:13:09.250Z,99.90
2017-09-24T08:15:38.177Z,99.90
2017-09-24T08:18:06.319Z,99.90
2017-09-24T08:20:35.502Z,99.90
2017-09-24T08:23:05.292Z,99.90
2017-09-24T08:25:33.453Z,98.10
2017-09-24T08:28:02.254Z,95.20
2017-09-24T08:30:30.355Z,94.70
2017-09-24T08:32:59.220Z,89.60
2017-09-24T08:35:27.335Z,90.00
2017-09-24T08:37:56.208Z,87.30
2017-09-24T08:40:24.313Z,87.20
2017-09-24T08:42:52.426Z,86.30
2017-09-24T08:45:20.541Z,80.60
2017-09-24T08:47:49.419Z,75.10
2017-09-24T08:50:18.259Z,81.70
2017-09-24T08:52:46.389Z,80.80
2017-09-24T08:55:15.215Z,80.70
2017-09-24T08:57:43.410Z,84.30
2017-09-24T09:00:11.540Z,88.90
2017-09-24T09:02:39.702Z,86.50
2017-09-24T09:05:07.932Z,83.50
2017-09-24T09:07:36.393Z,77.00
2017-09-24T09:10:05.691Z,72.50
2017-09-24T09:12:35.288Z,72.80
2017-09-24T09:15:05.643Z,70.20
2017-09-24T09:17:33.721Z,70.80
2017-09-24T09:20:02.172Z,67.30
2017-09-24T09:22:32.176Z,68.30
2017-09-24T09:25:00.333Z,69.40
2017-09-24T09:27:29.616Z,65.40
2017-09-24T09:29:57.947Z,64.80
2017-09-24T09:32:32.910Z,63.50
2017-09-24T09:35:15.515Z,63.50
2017-09-24T09:37:43.675Z,63.60
2017-09-24T09:40:11.869Z,66.10
2017-09-24T09:42:41.580Z,69.90
2017-09-24T09:45:18.681Z,69.00
2017-09-24T09:47:47.728Z,76.10
2017-09-24T09:50:17.215Z,76.90
2017-09-24T09:52:46.190Z,77.20
2017-09-24T09:55:15.087Z,67.70
2017-09-24T09:57:43.161Z,67.60
2017-09-24T10:00:11.325Z,74.30
2017-09-24T10:02:39.529Z,71.90
2017-09-24T10:05:08.670Z,74.80
2017-09-24T10:07:49.437Z,76.60
2017-09-24T10:10:17.556Z,80.30
2017-09-24T10:12:45.623Z,83.50
2017-09-24T10:15:13.729Z,82.40
2017-09-24T10:17:42.776Z,82.30
2017-09-24T10:20:10.912Z,86.60
2017-09-24T10:22:38.992Z,83.30
2017-09-24T10:25:07.078Z,79.70
2017-09-24T10:27:35.605Z,76.40
2017-09-24T10:30:15.743Z,74.20
2017-09-24T10:32:44.595Z,71.60
2017-09-24T10:35:13.029Z,71.50
2017-09-24T10:37:42.613Z,74.00
2017-09-24T10:40:10.771Z,74.00
2017-09-24T10:42:38.960Z,72.30
2017-09-24T10:45:07.812Z,77.40
2017-09-24T10:47:35.903Z,77.30
2017-09-24T10:50:04.003Z,71.80
2017-09-24T10:52:33.000Z,63.90
2017-09-24T10:55:01.908Z,69.20
2017-09-24T10:57:29.995Z,69.20
2017-09-24T10:59:58.283Z,70.80
2017-09-24T11:02:27.384Z,75.90
2017-09-24T11:04:55.471Z,75.00
2017-09-24T11:07:23.592Z,73.50
2017-09-24T11:09:51.676Z,76.10
2017-09-24T11:12:19.787Z,77.90
2017-09-24T11:14:48.458Z,79.80
2017-09-24T11:17:17.475Z,84.40
2017-09-24T11:19:46.314Z,88.40
2017-09-24T11:22:14.413Z,88.30
2017-09-24T11:24:42.577Z,90.80
2017-09-24T11:27:10.636Z,90.40
2017-09-24T11:29:38.730Z,90.00
2017-09-24T11:32:06.816Z,89.30
2017-09-24T11:34:35.662Z,89.60
2017-09-24T11:37:03.756Z,90.10
2017-09-24T11:39:31.847Z,87.90
2017-09-24T11:42:00.744Z,88.80
2017-09-24T11:44:31.380Z,90.40
2017-09-24T11:47:00.220Z,93.60
2017-09-24T11:49:28.299Z,93.60
2017-09-24T11:51:56.403Z,94.10
2017-09-24T11:54:25.256Z,95.30
2017-09-24T11:56:53.381Z,95.40
2017-09-24T11:59:21.504Z,96.30
2017-09-24T12:01:49.612Z,97.40
2017-09-24T12:04:18.102Z,97.50
2017-09-24T12:06:46.933Z,96.90
2017-09-24T12:09:16.164Z,96.80
2017-09-24T12:11:45.071Z,97.00
2017-09-24T12:14:13.145Z,96.90
2017-09-24T12:16:41.258Z,95.00
2017-09-24T12:19:09.346Z,92.50
2017-09-24T12:21:37.436Z,87.00
2017-09-24T12:24:06.275Z,79.80
2017-09-24T12:26:34.379Z,79.70
2017-09-24T12:29:02.495Z,74.20
2017-09-24T12:31:30.588Z,75.80
2017-09-24T12:33:58.669Z,75.00
2017-09-24T12:36:26.747Z,74.30
2017-09-24T12:38:54.843Z,70.60
2017-09-24T12:41:23.725Z,72.20
2017-09-24T12:43:51.822Z,72.10
2017-09-24T12:46:19.923Z,77.80
2017-09-24T12:48:48.023Z,79.90
2017-09-24T12:51:16.131Z,77.70
2017-09-24T12:53:44.215Z,76.30
2017-09-24T12:56:12.312Z,77.40
2017-09-24T12:58:40.401Z,81.40
2017-09-24T13:01:08.495Z,83.70
2017-09-24T13:03:37.347Z,82.60
2017-09-24T13:06:05.419Z,82.80
2017-09-24T13:08:33.510Z,81.80
2017-09-24T13:11:01.599Z,84.70
2017-09-24T13:13:30.483Z,85.50
2017-09-24T13:15:59.327Z,89.00
2017-09-24T13:18:27.420Z,88.90
2017-09-24T13:20:55.543Z,90.10
2017-09-24T13:23:23.641Z,91.20
2017-09-24T13:25:51.721Z,91.30
2017-09-24T13:28:20.572Z,91.70
2017-09-24T13:30:49.216Z,91.60
2017-09-24T13:33:17.299Z,92.20
2017-09-24T13:35:46.204Z,94.20
2017-09-24T13:38:14.324Z,94.30
2017-09-24T13:40:42.421Z,94.90
2017-09-24T13:43:10.516Z,94.60
2017-09-24T13:45:38.698Z,95.00
2017-09-24T13:48:06.780Z,95.80
2017-09-24T13:50:36.050Z,95.30
2017-09-24T13:53:04.929Z,94.60
2017-09-24T13:55:33.021Z,94.60
2017-09-24T13:58:01.110Z,93.40
2017-09-24T14:00:29.925Z,93.70
2017-09-24T14:02:58.004Z,94.00
2017-09-24T14:05:27.616Z,93.80
2017-09-24T14:07:55.691Z,93.40
2017-09-24T14:10:23.844Z,91.60
2017-09-24T14:12:51.966Z,91.30
2017-09-24T14:15:20.074Z,91.50
2017-09-24T14:17:48.176Z,92.40
2017-09-24T14:20:16.274Z,93.10
2017-09-24T14:22:45.127Z,91.60
2017-09-24T14:25:13.206Z,91.60
2017-09-24T14:27:41.342Z,91.90
2017-09-24T14:30:09.620Z,91.20
2017-09-24T14:32:37.704Z,91.50
2017-09-24T14:35:06.643Z,91.00
2017-09-24T14:37:35.517Z,91.00
2017-09-24T14:40:03.608Z,91.00
2017-09-24T14:42:31.675Z,90.50
2017-09-24T14:44:59.778Z,90.50
2017-09-24T14:47:28.805Z,90.90
2017-09-24T14:49:56.894Z,91.00
2017-09-24T14:52:25.786Z,92.30
2017-09-24T14:54:53.947Z,92.30
2017-09-24T14:57:23.639Z,92.50
2017-09-24T14:59:51.743Z,92.50
2017-09-24T15:02:20.593Z,92.30
2017-09-24T15:04:48.684Z,92.30
2017-09-24T15:07:17.599Z,93.80
2017-09-24T15:09:45.711Z,93.80
2017-09-24T15:12:14.395Z,94.30
2017-09-24T15:14:44.045Z,93.40
2017-09-24T15:17:13.772Z,94.10
2017-09-24T15:19:43.086Z,94.00
2017-09-24T15:22:11.941Z,94.40
2017-09-24T15:24:44.111Z,94.20
2017-09-24T15:27:12.952Z,95.00
2017-09-24T15:29:41.273Z,95.00
2017-09-24T15:32:10.936Z,94.90
2017-09-24T15:34:39.020Z,94.90
2017-09-24T15:37:07.116Z,95.10
2017-09-24T15:39:36.031Z,95.30
2017-09-24T15:42:04.144Z,95.20
2017-09-24T15:44:32.761Z,96.50
2017-09-24T15:47:01.533Z,97.10
2017-09-24T15:49:30.414Z,99.10
2017-09-24T15:51:58.499Z,99.10
2017-09-24T15:54:27.200Z,99.00
2017-09-24T15:56:56.164Z,99.10
2017-09-24T15:59:25.616Z,99.90
2017-09-24T16:01:53.852Z,99.90
2017-09-24T16:04:21.942Z,99.90
2017-09-24T16:06:50.072Z,99.90
2017-09-24T16:09:19.052Z,99.90
2017-09-24T16:11:47.151Z,99.90
2017-09-24T16:14:16.769Z,99.90
2017-09-24T16:16:45.655Z,99.90
2017-09-24T16:19:14.988Z,99.90
2017-09-24T16:21:43.163Z,99.90
2017-09-24T16:24:11.274Z,99.90
2017-09-24T16:26:39.376Z,99.90
2017-09-24T16:31:51.326Z,99.90
2017-09-24T16:34:20.107Z,99.90
2017-09-24T16:36:49.887Z,99.90
2017-09-24T16:39:19.679Z,99.90
2017-09-24T16:41:48.525Z,99.90
2017-09-24T16:44:16.626Z,99.90
2017-09-24T16:46:44.707Z,99.90
2017-09-24T16:49:13.563Z,99.90
2017-09-24T16:51:41.913Z,99.90
2017-09-24T16:54:10.700Z,99.90
2017-09-24T16:56:38.815Z,99.90
2017-09-24T16:59:06.915Z,99.90
2017-09-24T17:01:36.011Z,99.90
2017-09-24T17:04:04.128Z,99.90
2017-09-24T17:06:33.710Z,99.90
2017-09-24T17:09:01.812Z,99.90
2017-09-24T17:11:31.852Z,99.90
2017-09-24T17:14:00.775Z,99.90
2017-09-24T17:16:29.980Z,99.90
2017-09-24T17:18:58.071Z,99.90
2017-09-24T17:21:26.147Z,99.90
2017-09-24T17:23:54.255Z,99.90
2017-09-24T17:26:23.942Z,99.90
2017-09-24T17:28:52.891Z,99.90
2017-09-24T17:31:23.955Z,99.90
2017-09-24T17:33:52.050Z,99.90
2017-09-24T17:36:21.159Z,99.90
2017-09-24T17:38:49.743Z,99.90
2017-09-24T17:41:18.628Z,99.90
2017-09-24T17:43:46.771Z,99.90
2017-09-24T17:46:14.851Z,99.90
2017-09-24T17:48:42.987Z,99.90
2017-09-24T17:51:11.076Z,99.90
2017-09-24T17:53:39.192Z,99.90
2017-09-24T17:59:04.899Z,99.90
2017-09-24T18:01:33.793Z,99.90
2017-09-24T18:04:01.988Z,99.90
2017-09-24T18:06:30.855Z,99.90
2017-09-24T18:08:59.788Z,99.90
2017-09-24T18:11:27.940Z,99.90
2017-09-24T18:13:56.091Z,99.90
2017-09-24T18:16:24.743Z,99.90
2017-09-24T18:18:52.892Z,99.90
2017-09-24T18:21:21.003Z,99.90
2017-09-24T18:23:49.119Z,99.90
2017-09-24T18:26:17.229Z,99.90
2017-09-24T18:28:45.376Z,99.90
2017-09-24T18:31:14.370Z,99.90
2017-09-24T18:33:44.327Z,99.90
2017-09-24T18:36:12.448Z,99.90
2017-09-24T18:38:40.591Z,99.90
2017-09-24T18:41:09.511Z,99.90
2017-09-24T18:43:37.615Z,99.90
2017-09-24T18:46:05.987Z,99.90
2017-09-24T18:48:34.117Z,99.90
2017-09-24T18:51:02.560Z,99.90
2017-09-24T18:53:30.964Z,99.90
2017-09-24T18:55:59.429Z,99.90
2017-09-24T18:58:27.499Z,99.90
2017-09-24T19:00:59.089Z,99.90
2017-09-24T19:03:28.714Z,99.90
2017-09-24T19:05:58.527Z,99.90
2017-09-24T19:08:26.874Z,99.90
2017-09-24T19:10:56.125Z,99.90
2017-09-24T19:13:24.420Z,99.90
2017-09-24T19:15:54.307Z,99.90
2017-09-24T19:18:22.611Z,99.90
2017-09-24T19:20:51.011Z,99.90
2017-09-24T19:23:20.211Z,99.90
2017-09-24T19:25:48.622Z,99.90
2017-09-24T19:28:17.103Z,99.90
2017-09-24T19:30:46.195Z,99.90
2017-09-24T19:33:15.311Z,99.90
2017-09-24T19:35:43.539Z,99.90
2017-09-24T19:38:12.491Z,99.90
2017-09-24T19:40:41.886Z,99.90
2017-09-24T19:43:10.256Z,99.90
2017-09-24T19:45:38.520Z,99.90
2017-09-24T19:48:06.873Z,99.90
2017-09-24T19:50:35.078Z,99.90
2017-09-24T19:53:03.174Z,99.90
2017-09-24T19:55:32.071Z,99.90
2017-09-24T19:58:01.269Z,99.90
2017-09-24T20:00:29.617Z,99.90
2017-09-24T20:02:57.715Z,99.90
2017-09-24T20:05:26.575Z,99.90
2017-09-24T20:07:56.193Z,99.90
2017-09-24T20:10:24.267Z,99.90
2017-09-24T20:12:52.707Z,99.90
2017-09-24T20:15:20.930Z,99.90
2017-09-24T20:17:49.009Z,99.90
2017-09-24T20:20:17.100Z,99.90
2017-09-24T20:22:45.205Z,99.90
2017-09-24T20:25:13.280Z,99.90
2017-09-24T20:27:41.462Z,99.90
2017-09-24T20:30:09.606Z,99.90
2017-09-24T20:32:37.682Z,99.90
2017-09-24T20:35:05.791Z,99.90
2017-09-24T20:37:34.658Z,99.90
2017-09-24T20:40:02.768Z,99.90
2017-09-24T20:42:30.859Z,99.90
2017-09-24T20:44:58.950Z,99.90
2017-09-24T20:47:27.063Z,99.90
2017-09-24T20:49:55.140Z,99.90
2017-09-24T20:52:23.241Z,99.90
2017-09-24T20:54:51.321Z,99.90
2017-09-24T20:57:19.403Z,99.90
2017-09-24T20:59:47.573Z,99.90
2017-09-24T21:02:15.664Z,99.90
2017-09-24T21:04:43.947Z,99.90
2017-09-24T21:07:13.546Z,99.90
2017-09-24T21:09:41.826Z,99.90
2017-09-24T21:12:09.930Z,99.90
2017-09-24T21:14:38.038Z,99.90
2017-09-24T21:17:06.120Z,99.90
2017-09-24T21:19:34.214Z,99.90
2017-09-24T21:22:02.293Z,99.90
2017-09-24T21:24:30.388Z,99.90
2017-09-24T21:26:58.469Z,99.90
2017-09-24T21:29:26.647Z,99.90
2017-09-24T21:31:54.740Z,99.90
2017-09-24T21:34:22.837Z,99.90
2017-09-24T21:36:51.111Z,99.90
2017-09-24T21:39:19.201Z,99.90
2017-09-24T21:41:48.054Z,99.90
2017-09-24T21:44:16.152Z,99.90
2017-09-24T21:46:45.008Z,99.90
2017-09-24T21:49:13.196Z,99.90
2017-09-24T21:51:41.291Z,99.90
2017-09-24T21:54:10.134Z,99.90
2017-09-24T21:56:38.235Z,99.90
2017-09-24T21:59:07.101Z,99.90
2017-09-24T22:01:35.296Z,99.90
2017-09-24T22:04:04.886Z,99.90
2017-09-24T22:06:33.218Z,99.90
2017-09-24T22:09:01.294Z,99.90
2017-09-24T22:11:29.395Z,99.90
2017-09-24T22:13:57.482Z,99.90
2017-09-24T22:16:25.567Z,99.90
2017-09-24T22:18:53.646Z,99.90
2017-09-24T22:21:21.739Z,99.90
2017-09-24T22:23:49.962Z,99.90
2017-09-24T22:26:19.568Z,99.90
2017-09-24T22:28:47.673Z,99.90
2017-09-24T22:31:16.578Z,99.90
2017-09-24T22:33:45.413Z,99.90
2017-09-24T22:36:13.499Z,99.90
2017-09-24T22:38:41.580Z,99.90
2017-09-24T22:41:10.571Z,99.90
2017-09-24T22:43:38.663Z,99.90
2017-09-24T22:46:06.757Z,99.90
2017-09-24T22:48:34.843Z,99.90
2017-09-24T22:51:02.931Z,99.90
2017-09-24T22:53:31.011Z,99.90
2017-09-24T22:55:59.108Z,99.90
2017-09-24T22:58:27.191Z,99.90
2017-09-24T23:00:55.290Z,99.90
2017-09-24T23:03:23.363Z,99.90
2017-09-24T23:05:51.458Z,99.90
2017-09-24T23:08:21.049Z,99.90
2017-09-24T23:10:49.134Z,99.90
2017-09-24T23:13:17.219Z,99.90
2017-09-24T23:15:46.063Z,99.90
2017-09-24T23:18:14.139Z,99.90
2017-09-24T23:20:42.236Z,99.90
2017-09-24T23:23:10.327Z,99.90
2017-09-24T23:25:39.181Z,99.90
2017-09-24T23:28:07.276Z,99.90
2017-09-24T23:30:36.223Z,99.90
2017-09-24T23:33:04.304Z,99.90
2017-09-24T23:35:32.598Z,99.90
2017-09-24T23:38:00.683Z,99.90
2017-09-24T23:40:28.781Z,99.90
2017-09-24T23:42:56.892Z,99.90
2017-09-24T23:45:24.980Z,99.90
2017-09-24T23:47:53.080Z,99.90
2017-09-24T23:50:21.931Z,99.90
2017-09-24T23:52:50.014Z,99.90
2017-09-24T23:55:18.109Z,99.90
2017-09-24T23:57:46.963Z,99.90
